Time;durP1;ratioP1;P1;durP2;ratioP2;P2;SDS_P1;SDS_P2;PMS_P1;PMS_P2;Temp;Humidity;BMP_temperature;BMP_pressure;BME280_temperature;BME280_humidity;BME280_pressure;Samples;Min_cycle;Max_cycle;Signal;HPM_P1;HPM_P2
2024/01/11 00:00:40;;;;;;;59.83;25.40;;;;;;;-4.72;100.00;103200.72;5078808;27;20031;-74
2024/01/11 00:03:06;;;;;;;57.88;23.77;;;;;;;-4.75;100.00;103201.50;5079745;28;20040;-74
2024/01/11 00:05:31;;;;;;;51.72;24.27;;;;;;;-4.76;100.00;103207.53;5095863;27;20040;-74
2024/01/11 00:07:57;;;;;;;54.88;23.60;;;;;;;-4.75;100.00;103198.91;5092923;27;20493;-74
2024/01/11 00:10:23;;;;;;;51.47;23.25;;;;;;;-4.77;100.00;103202.25;5074253;27;20032;-74
2024/01/11 00:12:48;;;;;;;53.00;25.10;;;;;;;-4.79;100.00;103203.94;5081920;27;20031;-75
2024/01/11 00:15:14;;;;;;;54.92;25.35;;;;;;;-4.88;100.00;103195.75;5077603;28;20051;-75
2024/01/11 00:17:39;;;;;;;52.85;23.38;;;;;;;-4.92;100.00;103202.56;5085859;27;20237;-74
2024/01/11 00:20:06;;;;;;;54.63;24.13;;;;;;;-5.02;100.00;103208.25;5103170;27;20039;-74
2024/01/11 00:22:32;;;;;;;57.50;25.08;;;;;;;-4.96;100.00;103204.19;5103738;27;20036;-75
2024/01/11 00:24:57;;;;;;;57.97;24.88;;;;;;;-5.03;100.00;103206.47;5096306;27;20032;-74
2024/01/11 00:27:23;;;;;;;58.50;25.15;;;;;;;-5.04;100.00;103221.19;5113278;27;20683;-75
2024/01/11 00:29:49;;;;;;;51.38;24.17;;;;;;;-5.05;100.00;103213.34;5074851;27;20099;-74
2024/01/11 00:32:14;;;;;;;51.80;24.25;;;;;;;-5.09;100.00;103211.44;5084225;27;20638;-75
2024/01/11 00:34:40;;;;;;;52.88;23.92;;;;;;;-5.17;100.00;103211.16;5115525;27;20044;-73
2024/01/11 00:37:05;;;;;;;52.17;24.05;;;;;;;-5.17;100.00;103205.94;5107072;27;20037;-75
2024/01/11 00:39:30;;;;;;;51.55;24.83;;;;;;;-5.32;100.00;103220.91;5105122;27;20492;-74
2024/01/11 00:41:56;;;;;;;49.97;23.90;;;;;;;-5.28;100.00;103220.22;5105873;27;20036;-74
2024/01/11 00:44:21;;;;;;;53.78;24.20;;;;;;;-5.31;100.00;103222.72;5105932;27;20070;-74
2024/01/11 00:46:47;;;;;;;54.03;22.63;;;;;;;-5.22;100.00;103217.88;5104668;27;20571;-75
2024/01/11 00:49:12;;;;;;;56.63;23.73;;;;;;;-5.16;100.00;103215.53;5103946;27;20421;-73
2024/01/11 00:51:38;;;;;;;60.60;25.15;;;;;;;-5.22;100.00;103210.09;5100781;27;20032;-74
2024/01/11 00:54:03;;;;;;;51.88;23.15;;;;;;;-5.23;100.00;103209.16;5101117;27;20775;-74
2024/01/11 00:56:29;;;;;;;51.40;24.60;;;;;;;-5.20;100.00;103208.41;5097729;27;20417;-74
2024/01/11 00:58:55;;;;;;;61.20;24.95;;;;;;;-5.15;100.00;103213.81;5095617;27;20074;-74
2024/01/11 01:01:20;;;;;;;55.67;23.05;;;;;;;-5.15;100.00;103219.00;5098700;27;20144;-75
2024/01/11 01:03:46;;;;;;;45.05;21.75;;;;;;;-5.16;100.00;103218.13;5102870;27;20409;-74
2024/01/11 01:06:11;;;;;;;45.58;22.30;;;;;;;-5.27;100.00;103217.69;5089387;27;20046;-75
2024/01/11 01:08:37;;;;;;;47.85;22.25;;;;;;;-5.20;100.00;103226.63;5079282;27;20852;-75
2024/01/11 01:11:02;;;;;;;49.55;21.88;;;;;;;-5.24;100.00;103227.31;5093388;27;20717;-74
2024/01/11 01:13:28;;;;;;;47.33;21.92;;;;;;;-5.26;100.00;103222.06;5096320;27;20032;-74
2024/01/11 01:15:54;;;;;;;48.75;21.80;;;;;;;-5.32;100.00;103224.44;5090827;27;20036;-74
2024/01/11 01:18:20;;;;;;;45.55;21.15;;;;;;;-5.23;100.00;103216.09;5103793;27;20024;-74
2024/01/11 01:20:46;;;;;;;50.65;23.77;;;;;;;-5.31;100.00;103212.31;5096581;27;20032;-74
2024/01/11 01:23:11;;;;;;;53.20;22.13;;;;;;;-5.22;100.00;103205.78;5090445;27;20028;-74
2024/01/11 01:25:37;;;;;;;51.25;21.98;;;;;;;-5.21;100.00;103214.47;5089250;27;20075;-74
2024/01/11 01:28:02;;;;;;;49.15;22.58;;;;;;;-5.28;100.00;103207.22;5073035;27;20036;-74
2024/01/11 01:30:28;;;;;;;44.17;21.35;;;;;;;-5.32;100.00;103218.31;5058731;27;20549;-74
2024/01/11 01:32:53;;;;;;;48.38;21.85;;;;;;;-5.39;100.00;103230.19;5089241;27;20146;-74
2024/01/11 01:35:19;;;;;;;47.83;22.63;;;;;;;-5.45;100.00;103231.66;5092856;27;20048;-74
2024/01/11 01:37:45;;;;;;;50.75;22.65;;;;;;;-5.39;100.00;103230.19;5097246;27;20055;-74
2024/01/11 01:40:11;;;;;;;47.03;22.15;;;;;;;-5.44;100.00;103229.13;5100421;27;20050;-73
2024/01/11 01:42:42;;;;;;;44.10;20.98;;;;;;;-5.60;100.00;103214.59;5096255;27;20040;-73
2024/01/11 01:45:08;;;;;;;45.75;21.90;;;;;;;-5.52;100.00;103235.72;5081855;27;20036;-74
2024/01/11 01:47:34;;;;;;;47.47;22.02;;;;;;;-5.62;100.00;103226.66;5097384;27;20068;-74
2024/01/11 01:49:59;;;;;;;48.08;21.50;;;;;;;-5.64;100.00;103228.28;5072507;27;20047;-75
2024/01/11 01:52:25;;;;;;;45.67;21.75;;;;;;;-5.69;100.00;103237.59;5095104;27;20122;-74
2024/01/11 01:54:51;;;;;;;48.95;20.95;;;;;;;-5.70;100.00;103232.34;5093254;27;20569;-75
2024/01/11 01:57:19;;;;;;;51.05;21.20;;;;;;;-5.64;100.00;103232.59;5072962;28;20040;-75
2024/01/11 01:59:48;;;;;;;49.25;23.08;;;;;;;-5.65;100.00;103229.13;5075266;28;21205;-74
2024/01/11 02:02:14;;;;;;;48.63;21.65;;;;;;;-5.65;100.00;103234.31;5092750;27;20806;-75
2024/01/11 02:04:40;;;;;;;42.05;21.20;;;;;;;-5.64;100.00;103232.59;5086995;27;20047;-74
2024/01/11 02:07:06;;;;;;;44.78;21.48;;;;;;;-5.63;100.00;103232.66;5093222;27;20669;-74
2024/01/11 02:09:32;;;;;;;48.33;21.63;;;;;;;-5.64;100.00;103235.22;5098517;27;20032;-74
2024/01/11 02:11:59;;;;;;;44.92;21.17;;;;;;;-5.58;100.00;103245.84;5095781;27;20040;-75
2024/01/11 02:14:25;;;;;;;49.67;20.05;;;;;;;-5.68;100.00;103246.28;5092634;27;20071;-75
2024/01/11 02:16:51;;;;;;;44.13;20.30;;;;;;;-5.56;100.00;103252.03;5093170;27;20032;-74
2024/01/11 02:19:19;;;;;;;44.55;21.20;;;;;;;-5.64;100.00;103243.88;5090031;27;20827;-74
2024/01/11 02:21:48;;;;;;;46.15;20.17;;;;;;;-5.76;100.00;103245.97;5090839;27;20038;-74
2024/01/11 02:24:14;;;;;;;42.00;20.90;;;;;;;-5.61;100.00;103243.13;5086684;27;20883;-74
2024/01/11 02:27:02;;;;;;;44.88;19.83;;;;;;;-5.62;100.00;103246.53;5073976;27;20048;-75
2024/01/11 02:29:28;;;;;;;46.30;21.98;;;;;;;-5.63;100.00;103253.44;5096836;27;20036;-74
2024/01/11 02:31:55;;;;;;;46.75;20.70;;;;;;;-5.56;100.00;103249.41;5078633;27;20032;-73
2024/01/11 02:34:21;;;;;;;45.70;19.55;;;;;;;-5.58;100.00;103248.44;5096365;27;20052;-73
2024/01/11 02:36:46;;;;;;;41.03;20.45;;;;;;;-5.64;100.00;103250.78;5093683;27;20035;-76
2024/01/11 02:39:16;;;;;;;40.88;19.70;;;;;;;-5.52;100.00;103246.13;5076030;27;20051;-74
2024/01/11 02:41:43;;;;;;;44.88;20.80;;;;;;;-5.59;100.00;103244.06;5074631;28;20488;-74
2024/01/11 02:44:08;;;;;;;46.28;20.73;;;;;;;-5.56;100.00;103239.03;5093014;27;20047;-74
2024/01/11 02:46:34;;;;;;;48.60;20.75;;;;;;;-5.62;100.00;103236.13;5094980;27;20040;-74
2024/01/11 02:48:59;;;;;;;48.03;20.70;;;;;;;-5.70;100.00;103240.16;5075534;27;20097;-74
2024/01/11 02:51:25;;;;;;;45.25;21.13;;;;;;;-5.63;100.00;103227.47;5092518;27;20039;-74
2024/01/11 02:53:50;;;;;;;50.63;21.77;;;;;;;-5.53;100.00;103227.03;5093598;27;20039;-73
2024/01/11 02:56:16;;;;;;;50.33;21.58;;;;;;;-5.59;100.00;103223.28;5094825;27;20036;-74
2024/01/11 02:58:41;;;;;;;48.58;20.85;;;;;;;-5.60;100.00;103216.31;5089911;27;20035;-74
2024/01/11 03:01:07;;;;;;;46.22;21.00;;;;;;;-5.73;100.00;103218.41;5093978;27;20071;-74
2024/01/11 03:03:32;;;;;;;48.55;21.08;;;;;;;-5.78;100.00;103219.91;5097620;27;20040;-74
2024/01/11 03:05:58;;;;;;;43.92;21.27;;;;;;;-5.74;100.00;103219.22;5097908;27;20047;-74
2024/01/11 03:08:23;;;;;;;43.22;20.27;;;;;;;-5.80;100.00;103215.50;5074907;27;20533;-73
2024/01/11 03:10:49;;;;;;;51.58;21.92;;;;;;;-5.78;100.00;103222.50;5055598;28;20086;-74
2024/01/11 03:13:14;;;;;;;43.83;20.25;;;;;;;-5.88;100.00;103215.16;5101832;27;20042;-73
2024/01/11 03:15:40;;;;;;;46.40;21.35;;;;;;;-5.81;100.00;103219.81;5100093;27;20122;-74
2024/01/11 03:18:05;;;;;;;47.83;20.85;;;;;;;-5.82;100.00;103235.34;5090999;27;20037;-74
2024/01/11 03:20:31;;;;;;;44.80;19.63;;;;;;;-6.00;100.00;103238.06;5088220;27;20028;-74
2024/01/11 03:22:56;;;;;;;47.65;21.08;;;;;;;-6.03;100.00;103253.50;5096439;27;20035;-73
2024/01/11 03:25:22;;;;;;;53.40;21.92;;;;;;;-6.14;100.00;103246.94;5080780;27;20036;-73
2024/01/11 03:27:47;;;;;;;50.88;21.52;;;;;;;-6.04;100.00;103242.22;5096423;27;20105;-74
2024/01/11 03:30:13;;;;;;;46.20;20.48;;;;;;;-5.91;100.00;103238.41;5096887;27;20100;-74
2024/01/11 03:32:39;;;;;;;47.45;21.45;;;;;;;-5.88;100.00;103253.22;5102455;27;20042;-74
2024/01/11 03:35:08;;;;;;;52.20;21.63;;;;;;;-5.89;100.00;103241.97;5080909;28;20058;-74
2024/01/11 03:37:34;;;;;;;45.92;21.05;;;;;;;-5.82;100.00;103238.81;5084324;27;20051;-73
2024/01/11 03:40:02;;;;;;;41.85;19.15;;;;;;;-5.78;100.00;103245.00;5095396;27;20036;-74
2024/01/11 03:42:27;;;;;;;42.03;21.02;;;;;;;-5.79;100.00;103248.44;5105652;27;20111;-74
2024/01/11 03:44:53;;;;;;;51.40;21.55;;;;;;;-5.71;100.00;103247.06;5103904;27;20481;-73
2024/01/11 03:47:18;;;;;;;46.08;20.75;;;;;;;-5.76;100.00;103239.06;5099634;27;20032;-74
2024/01/11 03:49:44;;;;;;;54.80;21.55;;;;;;;-5.84;100.00;103240.44;5103116;27;20091;-74
2024/01/11 03:52:09;;;;;;;45.35;21.13;;;;;;;-5.72;100.00;103234.91;5100905;28;20032;-74
2024/01/11 03:54:35;;;;;;;46.17;21.98;;;;;;;-5.81;100.00;103239.69;5107377;27;20143;-74
2024/01/11 03:57:01;;;;;;;47.90;21.88;;;;;;;-5.91;100.00;103242.75;5103339;27;20203;-74
2024/01/11 03:59:27;;;;;;;55.08;22.85;;;;;;;-6.06;100.00;103241.28;5084173;27;20031;-75
2024/01/11 04:01:52;;;;;;;46.75;21.65;;;;;;;-6.05;100.00;103253.44;5085741;28;20109;-73
2024/01/11 04:04:18;;;;;;;47.75;22.92;;;;;;;-6.21;100.00;103261.38;5098297;27;20028;-73
2024/01/11 04:06:44;;;;;;;44.55;20.70;;;;;;;-6.20;100.00;103259.66;5093152;27;20039;-74
2024/01/11 04:09:10;;;;;;;48.17;20.63;;;;;;;-6.13;100.00;103257.38;5108017;27;20035;-73
2024/01/11 04:11:36;;;;;;;48.80;21.33;;;;;;;-6.14;100.00;103262.53;5112254;27;20039;-73
2024/01/11 04:14:01;;;;;;;54.65;22.23;;;;;;;-6.10;100.00;103273.13;5116258;27;20043;-73
2024/01/11 04:16:27;;;;;;;45.88;20.45;;;;;;;-6.22;100.00;103267.41;5096170;27;20633;-75
2024/01/11 04:18:52;;;;;;;52.15;22.42;;;;;;;-6.01;100.00;103270.94;5087112;27;20836;-73
2024/01/11 04:21:28;;;;;;;49.03;21.90;;;;;;;-6.25;100.00;103280.22;5081901;27;20043;-74
2024/01/11 04:23:54;;;;;;;58.13;23.75;;;;;;;-6.15;100.00;103285.00;5101495;27;20100;-73
2024/01/11 04:26:20;;;;;;;58.63;21.13;;;;;;;-6.27;100.00;103279.28;5106555;27;20713;-73
2024/01/11 04:28:47;;;;;;;46.95;22.75;;;;;;;-6.17;100.00;103289.25;5104977;27;20039;-74
2024/01/11 04:31:16;;;;;;;47.00;21.95;;;;;;;-6.08;100.00;103284.44;5112170;27;20181;-74
2024/01/11 04:33:43;;;;;;;50.70;22.80;;;;;;;-6.22;100.00;103290.75;5109141;27;20044;-73
2024/01/11 04:36:09;;;;;;;51.67;22.33;;;;;;;-5.96;100.00;103291.03;5080468;27;20066;-73
2024/01/11 04:38:35;;;;;;;48.20;21.42;;;;;;;-6.03;100.00;103295.03;5102994;27;20043;-73
2024/01/11 04:41:00;;;;;;;48.70;22.48;;;;;;;-6.09;100.00;103299.97;5080205;27;20363;-74
2024/01/11 04:43:26;;;;;;;50.33;22.77;;;;;;;-6.07;100.00;103298.34;5101251;27;20024;-73
2024/01/11 04:45:51;;;;;;;47.25;21.65;;;;;;;-5.89;100.00;103304.28;5095101;27;20055;-75
2024/01/11 04:48:18;;;;;;;46.28;21.65;;;;;;;-5.95;100.00;103295.41;5091923;27;20047;-75
2024/01/11 04:50:44;;;;;;;49.20;22.63;;;;;;;-6.10;100.00;103295.59;5088027;27;20070;-75
2024/01/11 04:53:09;;;;;;;52.25;21.60;;;;;;;-5.95;100.00;103298.00;5080611;27;20121;-76
2024/01/11 04:55:35;;;;;;;50.15;23.45;;;;;;;-5.97;100.00;103294.41;5096361;27;20045;-73
2024/01/11 04:58:00;;;;;;;49.58;22.63;;;;;;;-6.04;100.00;103286.38;5091191;27;20025;-75
2024/01/11 05:00:26;;;;;;;56.20;24.38;;;;;;;-6.08;100.00;103293.94;5092369;27;20505;-75
2024/01/11 05:02:51;;;;;;;59.42;23.85;;;;;;;-6.18;100.00;103302.16;5095411;27;20105;-75
2024/01/11 05:05:17;;;;;;;55.05;23.30;;;;;;;-6.10;100.00;103299.09;5081847;28;20485;-75
2024/01/11 05:07:42;;;;;;;57.88;24.08;;;;;;;-6.12;100.00;103307.66;5099566;27;20080;-74
2024/01/11 05:10:08;;;;;;;54.22;24.35;;;;;;;-6.12;100.00;103305.94;5094936;27;20040;-74
2024/01/11 05:12:33;;;;;;;55.80;24.20;;;;;;;-6.02;100.00;103296.84;5083616;27;20034;-75
2024/01/11 05:14:59;;;;;;;61.15;24.42;;;;;;;-6.00;100.00;103290.00;5063536;27;20335;-75
2024/01/11 05:17:26;;;;;;;49.28;24.13;;;;;;;-6.18;100.00;103305.63;5079246;27;20044;-75
2024/01/11 05:19:51;;;;;;;53.00;23.48;;;;;;;-6.22;100.00;103297.63;5097227;27;20032;-74
2024/01/11 05:22:17;;;;;;;57.63;26.45;;;;;;;-6.24;100.00;103296.69;5089030;27;20088;-75
2024/01/11 05:24:43;;;;;;;58.40;25.45;;;;;;;-6.34;100.00;103291.06;5099193;27;20046;-74
2024/01/11 05:27:08;;;;;;;51.55;22.80;;;;;;;-6.30;100.00;103285.22;5097321;27;20072;-73
2024/01/11 05:29:34;;;;;;;55.75;25.92;;;;;;;-6.20;100.00;103286.50;5103727;27;20117;-75
2024/01/11 05:31:59;;;;;;;55.33;25.58;;;;;;;-6.28;100.00;103283.56;5082591;27;20850;-75
2024/01/11 05:34:25;;;;;;;52.42;24.48;;;;;;;-6.15;100.00;103272.03;5080267;27;20818;-74
2024/01/11 05:36:50;;;;;;;58.30;24.20;;;;;;;-6.11;100.00;103266.16;5093285;27;20740;-74
2024/01/11 05:39:16;;;;;;;53.70;25.85;;;;;;;-6.07;100.00;103283.66;5093868;27;20044;-75
2024/01/11 05:41:45;;;;;;;53.97;24.15;;;;;;;-6.31;100.00;103299.00;5088051;27;20035;-74
2024/01/11 05:44:10;;;;;;;62.45;27.33;;;;;;;-6.30;100.00;103282.63;5075037;27;20024;-75
2024/01/11 05:46:36;;;;;;;59.42;25.88;;;;;;;-6.22;100.00;103269.06;5077248;27;20048;-73
2024/01/11 05:49:02;;;;;;;61.42;24.88;;;;;;;-6.12;100.00;103276.47;5099122;27;20036;-74
2024/01/11 05:51:27;;;;;;;59.17;26.88;;;;;;;-6.19;100.00;103272.69;5073870;28;20036;-74
2024/01/11 05:53:53;;;;;;;61.95;26.60;;;;;;;-6.28;100.00;103278.38;5059665;27;20036;-74
2024/01/11 05:56:20;;;;;;;56.88;25.83;;;;;;;-6.18;100.00;103268.41;5099095;27;20038;-74
2024/01/11 05:58:45;;;;;;;57.58;25.38;;;;;;;-6.13;100.00;103275.56;5061693;27;20048;-75
2024/01/11 06:01:11;;;;;;;57.28;26.98;;;;;;;-6.19;100.00;103277.00;5072014;28;20036;-74
2024/01/11 06:03:38;;;;;;;59.40;26.55;;;;;;;-6.24;100.00;103291.50;5100683;27;20105;-74
2024/01/11 06:06:03;;;;;;;62.92;25.60;;;;;;;-6.19;100.00;103282.22;5095760;27;20087;-75
2024/01/11 06:08:30;;;;;;;56.97;27.25;;;;;;;-6.14;100.00;103279.00;5096003;27;20043;-74
2024/01/11 06:10:56;;;;;;;60.63;27.33;;;;;;;-6.12;100.00;103289.47;5089490;27;20036;-75
2024/01/11 06:13:22;;;;;;;62.03;28.15;;;;;;;-6.15;100.00;103289.31;5072608;27;20040;-74
2024/01/11 06:15:47;;;;;;;68.75;28.73;;;;;;;-6.46;100.00;103306.09;5096993;27;20066;-73
2024/01/11 06:18:13;;;;;;;58.88;27.08;;;;;;;-6.77;100.00;103334.91;5095064;27;20097;-74
2024/01/11 06:20:38;;;;;;;64.45;28.02;;;;;;;-6.62;100.00;103345.13;5094247;27;20036;-74
2024/01/11 06:23:04;;;;;;;66.10;28.05;;;;;;;-6.59;100.00;103345.25;5094563;27;20032;-74
2024/01/11 06:25:29;;;;;;;69.75;30.33;;;;;;;-6.66;100.00;103351.88;5096735;27;20040;-74
2024/01/11 06:27:55;;;;;;;62.80;29.50;;;;;;;-6.54;100.00;103347.25;5082437;27;20029;-74
2024/01/11 06:30:21;;;;;;;68.10;30.77;;;;;;;-6.51;100.00;103346.53;5068318;28;20073;-74
2024/01/11 06:32:46;;;;;;;74.28;32.13;;;;;;;-6.30;100.00;103341.44;5092477;27;20044;-73
2024/01/11 06:35:12;;;;;;;74.43;32.63;;;;;;;-6.35;100.00;103355.91;5094917;27;20039;-74
2024/01/11 06:37:37;;;;;;;67.32;30.48;;;;;;;-6.31;100.00;103352.63;5074895;27;20131;-74
2024/01/11 06:40:04;;;;;;;69.63;32.05;;;;;;;-6.38;100.00;103353.16;5088901;27;20125;-74
2024/01/11 06:42:30;;;;;;;74.97;32.80;;;;;;;-6.26;100.00;103353.75;5084967;27;20041;-75
2024/01/11 06:44:56;;;;;;;74.40;32.88;;;;;;;-6.33;100.00;103354.25;5089283;27;20206;-74
2024/01/11 06:47:21;;;;;;;71.60;33.00;;;;;;;-6.38;100.00;103354.03;5093289;27;20048;-74
2024/01/11 06:49:47;;;;;;;69.65;32.40;;;;;;;-6.34;100.00;103358.56;5084788;27;20036;-74
2024/01/11 06:52:12;;;;;;;64.57;33.60;;;;;;;-6.19;100.00;103362.69;5093857;27;20024;-74
2024/01/11 06:54:39;;;;;;;76.32;34.58;;;;;;;-6.17;100.00;103358.47;5090058;27;20263;-73
2024/01/11 06:57:05;;;;;;;80.28;33.03;;;;;;;-6.33;100.00;103372.44;5095577;27;20722;-73
2024/01/11 06:59:30;;;;;;;67.22;31.75;;;;;;;-6.34;100.00;103379.31;5074395;27;20074;-74
2024/01/11 07:01:56;;;;;;;72.55;34.92;;;;;;;-6.29;100.00;103380.44;5057705;27;20049;-75
2024/01/11 07:04:21;;;;;;;72.70;31.90;;;;;;;-6.36;100.00;103377.50;5095014;27;20036;-74
2024/01/11 07:06:47;;;;;;;71.75;30.45;;;;;;;-6.26;100.00;103374.50;5095322;27;20044;-75
2024/01/11 07:09:13;;;;;;;71.47;32.83;;;;;;;-6.36;100.00;103383.56;5088731;27;20028;-75
2024/01/11 07:11:38;;;;;;;71.10;31.67;;;;;;;-6.18;100.00;103380.91;5100938;27;20040;-75
2024/01/11 07:14:04;;;;;;;74.32;34.38;;;;;;;-6.14;100.00;103375.06;5103196;27;20029;-74
2024/01/11 07:16:30;;;;;;;68.63;32.00;;;;;;;-6.07;100.00;103365.88;5099354;27;20086;-74
2024/01/11 07:18:56;;;;;;;74.53;34.10;;;;;;;-6.06;100.00;103362.44;5102273;27;20024;-75
2024/01/11 07:21:29;;;;;;;78.35;34.55;;;;;;;-6.03;100.00;103357.38;5098262;27;20040;-74
2024/01/11 07:23:58;;;;;;;82.47;34.55;;;;;;;-6.08;100.00;103349.38;5090817;27;20103;-74
2024/01/11 07:26:24;;;;;;;78.40;34.45;;;;;;;-5.88;100.00;103337.25;5069418;28;20280;-74
2024/01/11 07:28:50;;;;;;;72.82;34.47;;;;;;;-5.81;100.00;103333.22;5095107;27;20179;-74
2024/01/11 07:31:16;;;;;;;75.32;34.92;;;;;;;-5.78;100.00;103329.03;5092741;27;20106;-75
2024/01/11 07:33:41;;;;;;;75.97;34.22;;;;;;;-5.82;100.00;103339.25;5081279;27;20024;-74
2024/01/11 07:36:07;;;;;;;75.03;34.70;;;;;;;-5.97;100.00;103334.28;5102037;27;20036;-75
2024/01/11 07:38:33;;;;;;;76.57;35.70;;;;;;;-6.01;100.00;103350.56;5099160;27;20031;-74
2024/01/11 07:40:58;;;;;;;82.07;36.28;;;;;;;-6.02;100.00;103352.28;5084016;28;20060;-75
2024/01/11 07:43:24;;;;;;;83.43;37.22;;;;;;;-6.00;100.00;103357.53;5099397;27;20114;-75
2024/01/11 07:45:50;;;;;;;81.28;38.15;;;;;;;-6.02;100.00;103353.97;5078275;28;20509;-74
2024/01/11 07:48:15;;;;;;;78.10;33.78;;;;;;;-5.91;100.00;103342.31;5088037;27;20284;-74
2024/01/11 07:50:42;;;;;;;80.95;38.00;;;;;;;-5.84;100.00;103339.16;5099325;27;20136;-74
2024/01/11 07:53:07;;;;;;;72.28;35.95;;;;;;;-5.86;100.00;103337.34;5098594;27;20036;-74
2024/01/11 07:55:33;;;;;;;84.90;37.65;;;;;;;-5.84;100.00;103338.28;5099159;27;20463;-74
2024/01/11 07:57:59;;;;;;;83.63;37.15;;;;;;;-6.03;100.00;103344.38;5104720;27;20520;-74
2024/01/11 08:00:25;;;;;;;89.68;36.78;;;;;;;-5.97;100.00;103336.88;5102377;27;20253;-74
2024/01/11 08:02:50;;;;;;;85.05;37.17;;;;;;;-5.97;100.00;103348.97;5105480;27;20031;-74
2024/01/11 08:05:16;;;;;;;75.53;36.30;;;;;;;-6.04;100.00;103353.88;5092951;27;20585;-74
2024/01/11 08:07:44;;;;;;;83.75;37.05;;;;;;;-6.32;100.00;103359.53;5098839;27;20488;-74
2024/01/11 08:10:10;;;;;;;76.50;36.42;;;;;;;-6.09;100.00;103373.56;5099224;27;20032;-74
2024/01/11 08:12:36;;;;;;;84.47;37.50;;;;;;;-6.03;100.00;103365.16;5100475;27;20505;-75
2024/01/11 08:15:02;;;;;;;86.05;38.53;;;;;;;-5.97;100.00;103354.16;5101671;27;20036;-74
2024/01/11 08:17:27;;;;;;;92.18;38.63;;;;;;;-5.88;100.00;103351.94;5088903;27;20768;-73
2024/01/11 08:19:55;;;;;;;84.88;38.55;;;;;;;-5.93;100.00;103359.56;5078906;27;20032;-74
2024/01/11 08:22:21;;;;;;;78.28;38.08;;;;;;;-5.80;100.00;103369.66;5070357;28;20040;-73
2024/01/11 08:24:47;;;;;;;88.90;38.47;;;;;;;-5.89;100.00;103370.94;5071565;27;20043;-75
2024/01/11 08:27:13;;;;;;;81.45;39.90;;;;;;;-5.92;100.00;103371.75;5096751;27;20036;-74
2024/01/11 08:29:38;;;;;;;87.47;39.58;;;;;;;-5.88;100.00;103385.72;5091436;27;20032;-74
2024/01/11 08:32:04;;;;;;;80.72;38.63;;;;;;;-5.75;100.00;103381.13;5095639;27;20032;-73
2024/01/11 08:34:30;;;;;;;80.25;39.58;;;;;;;-5.79;100.00;103383.53;5078644;27;20032;-74
2024/01/11 08:36:55;;;;;;;94.75;39.22;;;;;;;-5.68;100.00;103397.00;5098091;27;20524;-74
2024/01/11 08:39:21;;;;;;;92.97;39.15;;;;;;;-5.69;100.00;103397.81;5095428;27;20064;-74
2024/01/11 08:41:47;;;;;;;93.22;41.75;;;;;;;-5.66;100.00;103393.66;5094899;27;21105;-74
2024/01/11 08:44:13;;;;;;;77.72;38.58;;;;;;;-5.66;100.00;103395.38;5076321;27;20846;-74
2024/01/11 08:46:38;;;;;;;98.72;40.90;;;;;;;-5.60;100.00;103398.25;5093155;27;20118;-74
2024/01/11 08:49:04;;;;;;;86.25;38.70;;;;;;;-5.50;100.00;103403.03;5092239;27;20991;-74
2024/01/11 08:51:31;;;;;;;85.75;39.92;;;;;;;-5.41;100.00;103397.34;5092406;27;21026;-74
2024/01/11 08:53:57;;;;;;;82.65;38.20;;;;;;;-5.31;100.00;103392.59;5075211;27;20040;-74
2024/01/11 08:56:23;;;;;;;90.50;41.50;;;;;;;-5.29;100.00;103409.16;5094689;27;20249;-75
2024/01/11 08:58:48;;;;;;;90.78;39.55;;;;;;;-5.26;100.00;103405.81;5100615;27;20036;-74
2024/01/11 09:01:15;;;;;;;92.70;41.42;;;;;;;-5.15;100.00;103399.34;5060154;28;20028;-75
2024/01/11 09:03:40;;;;;;;99.35;41.95;;;;;;;-5.26;100.00;103405.81;5096245;27;21088;-75
2024/01/11 09:06:06;;;;;;;85.35;41.47;;;;;;;-5.29;100.00;103410.84;5070255;27;20043;-74
2024/01/11 09:08:32;;;;;;;93.70;42.33;;;;;;;-5.08;100.00;103408.28;5094004;27;20587;-73
2024/01/11 09:10:58;;;;;;;94.47;41.58;;;;;;;-5.10;100.00;103420.34;5089494;27;20452;-74
2024/01/11 09:13:25;;;;;;;91.03;41.53;;;;;;;-5.08;100.00;103408.28;5074848;27;20874;-74
2024/01/11 09:15:52;;;;;;;93.15;42.22;;;;;;;-4.98;100.00;103406.13;5093477;27;20032;-74
2024/01/11 09:18:18;;;;;;;92.40;42.55;;;;;;;-4.89;100.00;103407.34;5075826;28;20040;-74
2024/01/11 09:20:43;;;;;;;101.05;40.72;;;;;;;-4.95;100.00;103416.69;5093737;27;20036;-74
2024/01/11 09:23:09;;;;;;;89.85;38.70;;;;;;;-4.93;100.00;103421.94;5077563;27;20038;-74
2024/01/11 09:25:34;;;;;;;91.43;41.97;;;;;;;-4.93;100.00;103423.66;5095964;27;20047;-74
2024/01/11 09:28:00;;;;;;;98.22;42.63;;;;;;;-4.82;100.00;103420.69;5096421;27;20596;-74
2024/01/11 09:30:26;;;;;;;92.50;43.60;;;;;;;-4.89;100.00;103425.56;5096264;27;20771;-74
2024/01/11 09:32:52;;;;;;;93.40;42.28;;;;;;;-4.79;100.00;103438.13;5090961;27;20768;-74
2024/01/11 09:35:17;;;;;;;94.10;41.08;;;;;;;-4.82;100.00;103438.91;5092101;27;20039;-74
2024/01/11 09:37:45;;;;;;;87.13;38.42;;;;;;;-4.83;100.00;103433.63;5096641;27;20040;-74
2024/01/11 09:40:11;;;;;;;101.10;41.50;;;;;;;-4.68;100.00;103437.72;5079920;27;20122;-74
2024/01/11 09:42:38;;;;;;;91.32;41.10;;;;;;;-4.72;100.00;103432.34;5090739;27;20142;-74
2024/01/11 09:45:12;;;;;;;85.93;38.35;;;;;;;-4.72;100.00;103448.88;5078541;27;20036;-74
2024/01/11 09:47:38;;;;;;;95.32;41.95;;;;;;;-4.56;100.00;103450.38;5091601;27;20045;-74
2024/01/11 09:50:05;;;;;;;90.82;42.08;;;;;;;-4.43;100.00;103457.84;5075418;27;20036;-74
2024/01/11 09:52:34;;;;;;;94.40;41.42;;;;;;;-4.38;100.00;103464.97;5077307;27;20040;-74
2024/01/11 09:55:00;;;;;;;91.32;40.72;;;;;;;-4.36;100.00;103464.22;5078637;27;20040;-75
2024/01/11 09:57:30;;;;;;;86.53;39.45;;;;;;;-4.41;100.00;103470.06;5096772;27;20139;-75
2024/01/11 09:59:57;;;;;;;95.38;42.50;;;;;;;-4.22;100.00;103473.47;5066941;27;20144;-74
2024/01/11 10:02:27;;;;;;;88.07;39.22;;;;;;;-4.19;100.00;103460.56;5088207;27;20048;-74
2024/01/11 10:04:53;;;;;;;83.70;38.13;;;;;;;-4.00;100.00;103464.78;5094916;27;20093;-74
2024/01/11 10:07:21;;;;;;;85.70;39.40;;;;;;;-4.03;100.00;103455.94;5092857;27;20862;-74
2024/01/11 10:09:46;;;;;;;82.97;37.45;;;;;;;-4.03;100.00;103451.63;5092262;27;20331;-73
2024/01/11 10:12:12;;;;;;;84.78;38.60;;;;;;;-4.00;100.00;103464.78;5075281;27;20040;-74
2024/01/11 10:14:38;;;;;;;84.80;39.08;;;;;;;-3.91;100.00;103466.84;5094783;27;20492;-73
2024/01/11 10:17:04;;;;;;;85.25;39.65;;;;;;;-3.86;100.00;103457.50;5086367;27;20556;-73
2024/01/11 10:19:30;;;;;;;80.50;37.55;;;;;;;-3.98;100.00;103452.69;5068037;27;20086;-74
2024/01/11 10:21:55;;;;;;;86.95;38.65;;;;;;;-3.83;100.00;103465.41;5090263;27;20140;-73
2024/01/11 10:24:22;;;;;;;87.55;41.38;;;;;;;-3.81;100.00;103473.31;5092285;27;20559;-73
2024/01/11 10:26:47;;;;;;;87.35;39.03;;;;;;;-3.58;100.00;103467.22;5094943;27;20047;-73
2024/01/11 10:29:13;;;;;;;85.78;38.78;;;;;;;-3.54;100.00;103457.81;5099417;27;20516;-73
2024/01/11 10:31:38;;;;;;;87.97;39.38;;;;;;;-3.54;100.00;103447.38;5091166;27;20036;-73
2024/01/11 10:34:06;;;;;;;81.25;37.78;;;;;;;-3.42;100.00;103434.78;5097063;27;20035;-73
2024/01/11 10:36:32;;;;;;;85.78;37.70;;;;;;;-3.40;100.00;103439.22;5070568;28;20564;-73
2024/01/11 10:39:01;;;;;;;84.40;37.75;;;;;;;-3.44;100.00;103442.56;5095482;27;20625;-74
2024/01/11 10:41:29;;;;;;;84.75;37.78;;;;;;;-3.56;100.00;103446.44;5077104;27;20067;-75
2024/01/11 10:43:57;;;;;;;77.18;35.75;;;;;;;-3.37;100.00;103443.66;5087374;27;20020;-74
2024/01/11 10:46:26;;;;;;;80.60;36.83;;;;;;;-3.41;100.00;103445.28;5100693;27;20031;-73
2024/01/11 10:48:56;;;;;;;79.90;38.63;;;;;;;-3.24;100.00;103440.66;5092614;27;20115;-74
2024/01/11 10:51:23;;;;;;;80.25;37.78;;;;;;;-3.18;100.00;103446.09;5097356;27;20038;-73
2024/01/11 10:53:51;;;;;;;81.32;37.10;;;;;;;-3.25;100.00;103471.91;5075548;27;20034;-73
2024/01/11 10:56:17;;;;;;;76.85;35.35;;;;;;;-3.34;100.00;103475.06;5101287;27;20024;-73